createdAt,value
2019-05-13T00:02:43.764Z,1.77
2019-05-13T00:05:14.630Z,1.80
2019-05-13T00:07:43.806Z,1.70
2019-05-13T00:10:14.624Z,1.40
2019-05-13T00:12:44.623Z,1.98
2019-05-13T00:15:14.099Z,1.50
2019-05-13T00:17:44.633Z,1.40
2019-05-13T00:20:14.206Z,1.70
2019-05-13T00:22:44.841Z,1.70
2019-05-13T00:27:44.515Z,1.80
2019-05-13T00:30:14.533Z,2.02
2019-05-13T00:32:44.737Z,2.00
2019-05-13T00:35:14.145Z,2.08
2019-05-13T00:37:44.276Z,1.98
2019-05-13T00:40:14.446Z,2.37
2019-05-13T00:42:44.272Z,2.50
2019-05-13T00:45:14.581Z,2.70
2019-05-13T00:47:43.995Z,2.92
2019-05-13T00:50:14.159Z,3.00
2019-05-13T00:52:44.858Z,2.83
2019-05-13T00:55:14.723Z,2.80
2019-05-13T00:57:43.627Z,3.35
2019-05-13T01:00:14.074Z,2.85
2019-05-13T01:02:44.553Z,2.60
2019-05-13T01:05:14.704Z,3.33
2019-05-13T01:07:44.410Z,3.45
2019-05-13T01:10:13.558Z,2.70
2019-05-13T01:12:44.061Z,3.00
2019-05-13T01:15:14.006Z,3.08
2019-05-13T01:17:44.695Z,3.60
2019-05-13T01:20:14.395Z,3.92
2019-05-13T01:25:14.493Z,4.75
2019-05-13T01:27:44.314Z,6.58
2019-05-13T01:30:13.667Z,6.05
2019-05-13T01:32:44.607Z,6.85
2019-05-13T01:35:14.859Z,7.95
2019-05-13T01:37:46.224Z,6.37
2019-05-13T01:42:44.450Z,5.92
2019-05-13T01:45:13.973Z,4.85
2019-05-13T01:47:44.006Z,5.28
2019-05-13T01:50:14.327Z,4.90
2019-05-13T01:52:44.654Z,4.20
2019-05-13T01:55:14.493Z,4.08
2019-05-13T01:57:44.415Z,4.22
2019-05-13T02:00:14.462Z,3.50
2019-05-13T02:02:44.616Z,3.80
2019-05-13T02:05:14.049Z,3.40
2019-05-13T02:07:56.525Z,3.25
2019-05-13T02:10:14.768Z,3.27
2019-05-13T02:12:44.663Z,3.20
2019-05-13T02:15:14.865Z,3.72
2019-05-13T02:17:44.680Z,3.00
2019-05-13T02:20:14.795Z,3.12
2019-05-13T02:22:44.383Z,3.62
2019-05-13T02:25:14.115Z,3.20
2019-05-13T02:27:44.135Z,3.25
2019-05-13T02:30:15.956Z,3.20
2019-05-13T02:32:43.282Z,3.40
2019-05-13T02:35:14.118Z,3.20
2019-05-13T02:37:43.474Z,4.08
2019-05-13T02:40:13.823Z,3.52
2019-05-13T02:42:43.625Z,3.75
2019-05-13T02:45:12.859Z,3.95
2019-05-13T02:47:44.267Z,3.83
2019-05-13T02:50:12.686Z,2.45
2019-05-13T02:52:44.312Z,3.30
2019-05-13T02:55:12.735Z,3.70
2019-05-13T02:57:43.743Z,3.53
2019-05-13T03:00:13.154Z,4.30
2019-05-13T03:02:43.826Z,4.17
2019-05-13T03:05:13.782Z,3.85
2019-05-13T03:07:43.111Z,3.40
2019-05-13T03:10:13.581Z,3.55
2019-05-13T03:15:12.991Z,3.65
2019-05-13T03:17:52.722Z,4.35
2019-05-13T03:20:22.856Z,3.85
2019-05-13T03:25:22.786Z,4.13
2019-05-13T03:27:54.088Z,4.15
2019-05-13T03:30:25.299Z,3.75
2019-05-13T03:32:59.774Z,3.47
2019-05-13T03:35:27.106Z,3.47
2019-05-13T03:37:52.944Z,3.90
2019-05-13T03:40:23.071Z,2.95
2019-05-13T03:45:25.494Z,3.62
2019-05-13T03:47:56.569Z,3.80
2019-05-13T03:50:25.036Z,3.98
2019-05-13T03:52:53.464Z,3.15
2019-05-13T03:55:23.489Z,3.50
2019-05-13T03:57:53.291Z,3.92
2019-05-13T04:00:23.646Z,3.67
2019-05-13T04:02:52.999Z,3.05
2019-05-13T04:05:22.884Z,2.90
2019-05-13T04:07:52.456Z,3.20
2019-05-13T04:10:23.040Z,3.12
2019-05-13T04:12:52.804Z,3.72
2019-05-13T04:15:23.486Z,3.77
2019-05-13T04:17:53.251Z,3.33
2019-05-13T04:20:23.292Z,3.55
2019-05-13T04:22:53.100Z,3.08
2019-05-13T04:25:23.131Z,3.30
2019-05-13T04:27:53.193Z,2.52
2019-05-13T04:30:22.497Z,2.62
2019-05-13T04:32:53.432Z,3.23
2019-05-13T04:35:23.712Z,2.95
2019-05-13T04:37:52.956Z,2.98
2019-05-13T04:40:23.115Z,2.83
2019-05-13T04:42:53.589Z,3.35
2019-05-13T04:45:24.066Z,2.98
2019-05-13T04:47:53.007Z,3.05
2019-05-13T04:50:22.807Z,2.20
2019-05-13T04:52:52.772Z,3.08
2019-05-13T04:55:22.906Z,2.10
2019-05-13T04:57:53.350Z,2.35
2019-05-13T05:00:27.608Z,2.35
2019-05-13T05:03:08.076Z,2.40
2019-05-13T05:05:42.376Z,2.42
2019-05-13T05:08:25.281Z,2.10
2019-05-13T05:11:05.393Z,2.65
2019-05-13T05:14:05.712Z,2.25
2019-05-13T05:16:53.702Z,2.72
2019-05-13T05:20:03.222Z,2.10
2019-05-13T05:22:39.213Z,2.08
2019-05-13T05:25:22.554Z,2.25
2019-05-13T05:28:12.397Z,2.10
2019-05-13T05:31:14.265Z,2.60
2019-05-13T05:33:48.595Z,2.15
2019-05-13T05:36:41.438Z,1.85
2019-05-13T05:39:24.688Z,2.15
2019-05-13T05:41:55.520Z,2.08
2019-05-13T05:44:26.767Z,2.58
2019-05-13T05:46:56.884Z,1.98
2019-05-13T05:49:26.480Z,2.00
2019-05-13T05:52:06.347Z,3.58
2019-05-13T05:54:37.390Z,2.30
2019-05-13T05:57:07.136Z,2.40
2019-05-13T05:59:36.597Z,3.67
2019-05-13T06:02:06.427Z,4.40
2019-05-13T06:04:34.981Z,2.20
2019-05-13T06:07:04.271Z,2.60
2019-05-13T06:09:32.921Z,2.65
2019-05-13T06:12:01.773Z,2.25
2019-05-13T06:14:32.750Z,2.60
2019-05-13T06:17:02.745Z,1.65
2019-05-13T06:19:31.920Z,1.90
2019-05-13T06:22:02.181Z,1.83
2019-05-13T06:24:31.314Z,1.62
2019-05-13T06:27:01.576Z,1.80
2019-05-13T06:29:31.792Z,2.77
2019-05-13T06:32:15.096Z,2.00
2019-05-13T06:34:32.854Z,2.72
2019-05-13T06:37:01.808Z,1.70
2019-05-13T06:39:31.718Z,1.80
2019-05-13T06:42:02.713Z,2.72
2019-05-13T06:44:31.629Z,2.30
2019-05-13T06:47:02.670Z,2.17
2019-05-13T06:49:32.224Z,2.55
2019-05-13T06:52:01.749Z,2.02
2019-05-13T06:54:32.944Z,1.80
2019-05-13T06:57:04.129Z,2.37
2019-05-13T06:59:31.790Z,2.02
2019-05-13T07:02:02.163Z,2.10
2019-05-13T07:04:32.557Z,1.87
2019-05-13T07:07:09.925Z,1.90
2019-05-13T07:09:32.248Z,1.80
2019-05-13T07:12:02.973Z,1.72
2019-05-13T07:14:32.392Z,2.15
2019-05-13T07:17:02.031Z,1.90
2019-05-13T07:19:32.293Z,1.75
2019-05-13T07:22:02.788Z,2.35
2019-05-13T07:24:32.213Z,2.02
2019-05-13T07:27:02.041Z,1.87
2019-05-13T07:29:32.499Z,2.60
2019-05-13T07:32:01.992Z,2.10
2019-05-13T07:34:33.742Z,1.82
2019-05-13T07:39:32.751Z,2.22
2019-05-13T07:42:05.007Z,1.87
2019-05-13T07:44:32.442Z,1.40
2019-05-13T07:47:03.448Z,1.45
2019-05-13T07:49:31.831Z,1.35
2019-05-13T07:52:01.635Z,1.60
2019-05-13T07:54:32.563Z,1.70
2019-05-13T07:57:01.860Z,1.70
2019-05-13T07:59:31.746Z,1.52
2019-05-13T08:02:02.103Z,1.62
2019-05-13T08:04:33.473Z,2.02
2019-05-13T08:07:02.229Z,1.42
2019-05-13T08:09:31.848Z,1.40
2019-05-13T08:12:09.865Z,1.45
2019-05-13T08:14:32.542Z,1.62
2019-05-13T08:17:02.597Z,1.47
2019-05-13T08:19:32.481Z,1.72
2019-05-13T08:22:02.647Z,1.72
2019-05-13T08:24:31.550Z,1.45
2019-05-13T08:27:02.090Z,1.32
2019-05-13T08:29:32.876Z,1.20
2019-05-13T08:32:02.742Z,1.32
2019-05-13T08:34:32.945Z,1.40
2019-05-13T08:37:02.885Z,1.40
2019-05-13T08:39:33.457Z,1.10
2019-05-13T08:42:14.753Z,1.22
2019-05-13T08:44:32.253Z,1.35
2019-05-13T08:47:02.988Z,1.12
2019-05-13T08:49:32.599Z,1.20
2019-05-13T08:52:01.788Z,1.22
2019-05-13T08:54:32.850Z,1.52
2019-05-13T08:57:02.999Z,2.55
2019-05-13T08:59:31.891Z,1.00
2019-05-13T09:02:03.138Z,1.12
2019-05-13T09:04:31.597Z,1.72
2019-05-13T09:07:02.159Z,1.57
2019-05-13T09:09:31.418Z,1.27
2019-05-13T09:12:02.451Z,1.40
2019-05-13T09:14:32.338Z,1.05
2019-05-13T09:17:02.013Z,1.07
2019-05-13T09:19:32.173Z,1.22
2019-05-13T09:22:03.134Z,1.02
2019-05-13T09:24:37.181Z,1.30
2019-05-13T09:29:32.257Z,1.32
2019-05-13T09:32:03.717Z,1.10
2019-05-13T09:34:32.804Z,1.05
2019-05-13T09:37:02.770Z,1.42
2019-05-13T09:39:32.292Z,1.40
2019-05-13T09:42:02.673Z,1.10
2019-05-13T09:44:32.791Z,1.20
2019-05-13T09:49:32.861Z,1.40
2019-05-13T09:52:01.795Z,1.12
2019-05-13T09:54:32.548Z,1.57
2019-05-13T09:57:01.624Z,1.37
2019-05-13T09:59:31.949Z,1.50
2019-05-13T10:02:03.104Z,1.15
2019-05-13T10:04:31.813Z,0.90
2019-05-13T10:07:02.171Z,1.67
2019-05-13T10:09:32.641Z,1.30
2019-05-13T10:12:03.139Z,1.10
2019-05-13T10:14:32.663Z,1.47
2019-05-13T10:17:05.787Z,1.35
2019-05-13T10:19:32.370Z,1.10
2019-05-13T10:22:01.179Z,1.10
2019-05-13T10:24:32.329Z,0.98
2019-05-13T10:27:02.411Z,1.22
2019-05-13T10:29:32.078Z,1.50
2019-05-13T10:32:02.807Z,1.00
2019-05-13T10:37:02.151Z,1.32
2019-05-13T10:39:30.926Z,1.57
2019-05-13T10:41:59.313Z,1.22
2019-05-13T10:44:27.708Z,1.05
2019-05-13T10:46:56.333Z,1.32
2019-05-13T10:49:24.746Z,1.02
2019-05-13T10:51:53.150Z,1.00
2019-05-13T10:54:21.867Z,1.00
2019-05-13T10:56:53.107Z,1.20
2019-05-13T10:59:22.878Z,1.20
2019-05-13T11:01:50.560Z,2.37
2019-05-13T11:04:21.789Z,1.00
2019-05-13T11:06:52.158Z,1.50
2019-05-13T11:09:21.906Z,1.10
2019-05-13T11:11:52.149Z,1.40
2019-05-13T11:16:52.392Z,1.12
2019-05-13T11:19:22.601Z,1.70
2019-05-13T11:21:50.845Z,1.20
2019-05-13T11:24:19.472Z,1.10
2019-05-13T11:26:47.960Z,1.57
2019-05-13T11:29:16.339Z,1.05
2019-05-13T11:31:44.743Z,1.10
2019-05-13T11:34:13.368Z,1.20
2019-05-13T11:36:43.393Z,1.22
2019-05-13T11:39:12.977Z,1.22
2019-05-13T11:41:42.823Z,1.05
2019-05-13T11:44:16.077Z,1.60
2019-05-13T11:46:42.671Z,1.40
2019-05-13T11:49:11.982Z,1.10
2019-05-13T11:51:42.550Z,1.52
2019-05-13T11:54:13.903Z,1.27
2019-05-13T11:56:49.003Z,1.20
2019-05-13T11:59:13.955Z,1.05
2019-05-13T12:01:42.710Z,1.32
2019-05-13T12:04:11.085Z,1.30
2019-05-13T12:06:45.935Z,1.40
2019-05-13T12:09:12.740Z,1.00
2019-05-13T12:11:39.762Z,1.10
2019-05-13T12:14:34.664Z,1.47
2019-05-13T12:19:06.877Z,1.42
2019-05-13T12:21:42.062Z,1.37
2019-05-13T12:24:10.669Z,1.40
2019-05-13T12:26:35.879Z,1.20
2019-05-13T12:29:04.412Z,1.07
2019-05-13T12:31:33.776Z,1.47
2019-05-13T12:34:03.690Z,0.90
2019-05-13T12:36:33.039Z,1.05
2019-05-13T12:39:01.849Z,1.02
2019-05-13T12:41:33.084Z,0.70
2019-05-13T12:44:01.943Z,0.88
2019-05-13T12:46:31.348Z,1.37
2019-05-13T12:49:04.211Z,1.45
2019-05-13T12:51:32.815Z,1.20
2019-05-13T12:54:03.844Z,1.45
2019-05-13T12:56:33.395Z,1.00
2019-05-13T12:59:02.935Z,1.20
2019-05-13T13:01:32.459Z,1.30
2019-05-13T13:04:04.475Z,1.00
2019-05-13T13:06:40.272Z,1.30
2019-05-13T13:09:04.416Z,1.10
2019-05-13T13:11:32.927Z,0.68
2019-05-13T13:14:05.696Z,0.95
2019-05-13T13:16:34.468Z,0.93
2019-05-13T13:19:08.505Z,1.00
2019-05-13T13:21:37.877Z,1.00
2019-05-13T13:24:12.403Z,0.93
2019-05-13T13:26:42.746Z,1.00
2019-05-13T13:29:15.235Z,1.00
2019-05-13T13:31:44.595Z,0.85
2019-05-13T13:34:18.280Z,0.73
2019-05-13T13:36:46.843Z,0.78
2019-05-13T13:39:15.514Z,1.10
2019-05-13T13:41:44.042Z,0.88
2019-05-13T13:44:12.638Z,0.90
2019-05-13T13:46:44.621Z,0.70
2019-05-13T13:49:13.221Z,0.80
2019-05-13T13:51:44.560Z,1.00
2019-05-13T13:54:13.628Z,0.70
2019-05-13T13:56:43.898Z,0.82
2019-05-13T13:59:14.114Z,0.90
2019-05-13T14:01:42.760Z,0.70
2019-05-13T14:04:16.468Z,0.72
2019-05-13T14:09:13.997Z,0.75
2019-05-13T14:11:42.384Z,1.47
2019-05-13T14:14:21.581Z,0.70
2019-05-13T14:16:51.834Z,1.20
2019-05-13T14:19:21.856Z,0.88
2019-05-13T14:21:52.539Z,0.95
2019-05-13T14:24:21.633Z,0.88
2019-05-13T14:26:52.314Z,1.00
2019-05-13T14:29:25.697Z,0.72
2019-05-13T14:31:51.990Z,0.60
2019-05-13T14:34:20.632Z,0.80
2019-05-13T14:36:49.033Z,0.80
2019-05-13T14:39:17.455Z,0.90
2019-05-13T14:41:45.888Z,0.53
2019-05-13T14:44:14.289Z,0.68
2019-05-13T14:46:47.490Z,0.70
2019-05-13T14:49:12.848Z,0.70
2019-05-13T14:51:41.654Z,1.10
2019-05-13T14:54:10.219Z,0.68
2019-05-13T14:56:38.616Z,1.10
2019-05-13T14:59:07.023Z,0.82
2019-05-13T15:01:35.805Z,0.80
2019-05-13T15:04:04.281Z,0.80
2019-05-13T15:06:33.090Z,0.93
2019-05-13T15:09:01.871Z,0.60
2019-05-13T15:11:32.394Z,0.70
2019-05-13T15:14:02.433Z,0.80
2019-05-13T15:16:31.728Z,1.00
2019-05-13T15:19:01.599Z,0.88
2019-05-13T15:21:32.138Z,0.65
2019-05-13T15:24:02.262Z,0.80
2019-05-13T15:26:30.963Z,0.60
2019-05-13T15:29:02.586Z,0.57
2019-05-13T15:31:31.584Z,0.80
2019-05-13T15:34:02.562Z,0.98
2019-05-13T15:36:31.550Z,0.50
2019-05-13T15:39:01.500Z,0.60
2019-05-13T15:41:30.104Z,0.68
2019-05-13T15:43:58.703Z,1.32
2019-05-13T15:46:27.165Z,0.70
2019-05-13T15:48:55.543Z,0.78
2019-05-13T15:51:23.958Z,0.78
2019-05-13T15:53:52.347Z,0.78
2019-05-13T15:56:22.532Z,0.70
2019-05-13T15:58:52.987Z,0.70
2019-05-13T16:01:22.903Z,0.70
2019-05-13T16:03:52.483Z,0.90
2019-05-13T16:06:21.273Z,0.78
2019-05-13T16:08:51.929Z,0.80
2019-05-13T16:11:21.944Z,0.82
2019-05-13T16:13:51.799Z,0.60
2019-05-13T16:16:21.988Z,0.80
2019-05-13T16:18:51.434Z,0.45
2019-05-13T16:21:20.387Z,1.07
2019-05-13T16:23:48.850Z,0.75
2019-05-13T16:26:17.228Z,0.80
2019-05-13T16:28:45.620Z,0.88
2019-05-13T16:31:14.018Z,0.50
2019-05-13T16:33:42.391Z,0.53
2019-05-13T16:36:12.603Z,0.62
2019-05-13T16:38:41.699Z,0.82
2019-05-13T16:41:12.512Z,0.80
2019-05-13T16:43:42.648Z,0.82
2019-05-13T16:46:12.142Z,0.95
2019-05-13T16:48:41.594Z,0.88
2019-05-13T16:51:12.382Z,0.82
2019-05-13T16:53:42.177Z,0.90
2019-05-13T16:56:25.329Z,1.10
2019-05-13T16:58:41.709Z,0.68
2019-05-13T17:01:11.712Z,0.90
2019-05-13T17:03:41.446Z,0.72
2019-05-13T17:06:12.513Z,0.73
2019-05-13T17:08:42.360Z,0.78
2019-05-13T17:11:11.851Z,0.82
2019-05-13T17:13:42.192Z,0.82
2019-05-13T17:18:38.501Z,0.85
2019-05-13T17:21:06.887Z,1.10
2019-05-13T17:23:35.278Z,0.88
2019-05-13T17:26:03.658Z,0.90
2019-05-13T17:28:34.124Z,0.70
2019-05-13T17:31:02.381Z,0.90
2019-05-13T17:33:32.017Z,0.93
2019-05-13T17:36:02.218Z,1.10
2019-05-13T17:38:32.293Z,1.10
2019-05-13T17:41:02.142Z,0.82
2019-05-13T17:43:31.950Z,0.68
2019-05-13T17:46:01.400Z,1.10
2019-05-13T17:48:32.789Z,0.60
2019-05-13T17:51:01.372Z,0.90
2019-05-13T17:53:32.229Z,0.90
2019-05-13T17:56:02.286Z,1.15
2019-05-13T17:58:31.368Z,1.07
2019-05-13T18:01:01.681Z,1.02
2019-05-13T18:03:31.986Z,1.12
2019-05-13T18:06:02.423Z,0.80
2019-05-13T18:08:32.036Z,0.90
2019-05-13T18:11:02.168Z,0.93
2019-05-13T18:13:31.394Z,1.00
2019-05-13T18:16:02.105Z,0.90
2019-05-13T18:18:40.508Z,1.10
2019-05-13T18:21:01.542Z,0.80
2019-05-13T18:23:30.047Z,1.10
2019-05-13T18:25:58.433Z,0.85
2019-05-13T18:28:31.082Z,0.72
2019-05-13T18:30:57.036Z,0.70
2019-05-13T18:33:25.424Z,0.60
2019-05-13T18:35:53.817Z,0.90
2019-05-13T18:38:22.734Z,0.85
2019-05-13T18:40:52.728Z,0.72
2019-05-13T18:43:22.943Z,1.30
2019-05-13T18:45:52.643Z,1.02
2019-05-13T18:48:21.978Z,0.82
2019-05-13T18:50:52.404Z,0.93
2019-05-13T18:53:24.101Z,0.85
2019-05-13T18:55:54.776Z,1.12
2019-05-13T18:58:27.708Z,1.02
2019-05-13T19:00:58.164Z,0.80
2019-05-13T19:03:36.343Z,1.00
2019-05-13T19:06:01.220Z,0.80
2019-05-13T19:08:31.854Z,1.15
2019-05-13T19:11:01.201Z,1.27
2019-05-13T19:13:32.413Z,0.82
2019-05-13T19:16:02.384Z,1.02
2019-05-13T19:18:32.039Z,0.90
2019-05-13T19:21:01.900Z,1.30
2019-05-13T19:23:31.619Z,1.00
2019-05-13T19:26:07.408Z,1.20
2019-05-13T19:28:51.466Z,1.12
2019-05-13T19:31:17.491Z,1.00
2019-05-13T19:33:45.873Z,0.80
2019-05-13T19:36:14.265Z,1.10
2019-05-13T19:38:42.642Z,1.17
2019-05-13T19:41:11.664Z,1.17
2019-05-13T19:43:42.035Z,1.10
2019-05-13T19:46:10.329Z,1.10
2019-05-13T19:48:38.723Z,1.00
2019-05-13T19:51:07.109Z,0.95
2019-05-13T19:53:35.498Z,0.95
2019-05-13T19:56:03.885Z,0.93
2019-05-13T19:58:32.553Z,1.20
2019-05-13T20:01:01.033Z,1.30
2019-05-13T20:03:31.643Z,1.00
2019-05-13T20:06:01.923Z,1.40
2019-05-13T20:11:03.735Z,1.30
2019-05-13T20:13:32.115Z,1.75
2019-05-13T20:16:01.443Z,1.70
2019-05-13T20:18:32.066Z,1.63
2019-05-13T20:21:01.230Z,1.80
2019-05-13T20:23:31.847Z,1.50
2019-05-13T20:25:59.955Z,1.52
2019-05-13T20:28:28.335Z,1.50
2019-05-13T20:30:56.723Z,1.70
2019-05-13T20:33:25.100Z,1.75
2019-05-13T20:35:53.504Z,1.12
2019-05-13T20:38:22.229Z,1.52
2019-05-13T20:40:51.958Z,1.22
2019-05-13T20:43:22.484Z,1.00
2019-05-13T20:45:51.783Z,1.40
2019-05-13T20:48:21.254Z,1.17
2019-05-13T20:50:51.797Z,1.67
2019-05-13T20:53:21.711Z,1.32
2019-05-13T20:55:51.967Z,1.10
2019-05-13T20:58:21.403Z,1.37
2019-05-13T21:00:51.504Z,1.30
2019-05-13T21:03:22.003Z,1.15
2019-05-13T21:05:51.903Z,0.90
2019-05-13T21:08:21.748Z,1.20
2019-05-13T21:10:51.713Z,0.90
2019-05-13T21:13:21.206Z,1.10
2019-05-13T21:15:51.700Z,1.02
2019-05-13T21:18:22.007Z,1.27
2019-05-13T21:20:49.918Z,1.17
2019-05-13T21:23:18.306Z,1.47
2019-05-13T21:25:46.680Z,1.40
2019-05-13T21:28:15.085Z,1.02
2019-05-13T21:30:43.464Z,1.10
2019-05-13T21:33:11.863Z,1.15
2019-05-13T21:35:41.910Z,0.95
2019-05-13T21:38:11.270Z,1.50
2019-05-13T21:40:41.497Z,1.60
2019-05-13T21:43:10.147Z,1.47
2019-05-13T21:45:38.534Z,1.40
2019-05-13T21:48:06.991Z,1.20
2019-05-13T21:50:37.351Z,1.20
2019-05-13T21:53:05.480Z,1.60
2019-05-13T21:55:34.339Z,1.27
2019-05-13T21:58:03.327Z,1.47
2019-05-13T22:00:33.432Z,1.30
2019-05-13T22:03:02.210Z,1.17
2019-05-13T22:05:31.435Z,1.80
2019-05-13T22:08:01.682Z,1.90
2019-05-13T22:10:31.113Z,2.70
2019-05-13T22:13:01.477Z,2.20
2019-05-13T22:15:32.156Z,2.15
2019-05-13T22:18:01.782Z,3.17
2019-05-13T22:20:33.044Z,2.47
2019-05-13T22:23:01.465Z,2.62
2019-05-13T22:25:29.995Z,2.65
2019-05-13T22:27:58.408Z,2.67
2019-05-13T22:30:26.787Z,2.20
2019-05-13T22:32:55.179Z,1.98
2019-05-13T22:35:23.567Z,2.30
2019-05-13T22:37:51.973Z,2.45
2019-05-13T22:40:21.919Z,2.72
2019-05-13T22:42:56.339Z,2.00
2019-05-13T22:45:21.934Z,2.20
2019-05-13T22:47:52.090Z,2.25
2019-05-13T22:50:21.814Z,2.70
2019-05-13T22:52:50.375Z,2.02
2019-05-13T22:55:18.765Z,2.45
2019-05-13T22:57:47.173Z,2.20
2019-05-13T23:00:15.911Z,1.90
2019-05-13T23:02:44.320Z,2.60
2019-05-13T23:05:12.765Z,2.35
2019-05-13T23:07:41.146Z,1.85
2019-05-13T23:10:11.658Z,2.25
2019-05-13T23:12:42.070Z,2.30
2019-05-13T23:15:11.963Z,2.50
2019-05-13T23:17:42.071Z,2.10
2019-05-13T23:20:10.457Z,2.17
2019-05-13T23:22:41.300Z,2.52
2019-05-13T23:25:09.100Z,2.62
2019-05-13T23:27:37.484Z,2.25
2019-05-13T23:30:11.489Z,2.10
2019-05-13T23:32:39.829Z,2.30
2019-05-13T23:35:08.376Z,2.10
2019-05-13T23:37:36.754Z,1.75
2019-05-13T23:40:08.452Z,1.92
2019-05-13T23:42:36.825Z,2.05
2019-05-13T23:45:06.651Z,2.12
2019-05-13T23:47:35.085Z,2.10
2019-05-13T23:50:03.612Z,1.90
2019-05-13T23:52:32.264Z,1.87
2019-05-13T23:55:02.548Z,1.98
2019-05-13T23:57:31.375Z,1.77
2019-05-13T23:59:59.833Z,1.82
